createdAt,value
2022-10-13T00:01:50.472Z,101223.47
2022-10-13T00:04:24.242Z,101215.53
2022-10-13T00:06:58.950Z,101214.41
2022-10-13T00:09:32.881Z,101214.72
2022-10-13T00:12:07.085Z,101206.88
2022-10-13T00:14:40.357Z,101206.63
2022-10-13T00:17:14.016Z,101209.56
2022-10-13T00:19:47.629Z,101211.41
2022-10-13T00:22:22.629Z,101207.94
2022-10-13T00:24:56.229Z,101209.78
2022-10-13T00:27:29.870Z,101205.34
2022-10-13T00:30:03.427Z,101205.41
2022-10-13T00:32:37.030Z,101201.06
2022-10-13T00:35:12.225Z,101212.66
2022-10-13T00:37:47.212Z,101202.97
2022-10-13T00:40:20.812Z,101211.91
2022-10-13T00:42:54.280Z,101205.81
2022-10-13T00:45:30.151Z,101203.22
2022-10-13T00:48:03.958Z,101200.56
2022-10-13T00:50:38.903Z,101196.81
2022-10-13T00:53:16.448Z,101193.56
2022-10-13T00:55:52.589Z,101192.81
2022-10-13T00:58:31.457Z,101189.34
2022-10-13T01:01:07.269Z,101190.25
2022-10-13T01:03:40.893Z,101187.63
2022-10-13T01:06:14.821Z,101195.66
2022-10-13T01:08:49.522Z,101185.66
2022-10-13T01:11:44.418Z,101183.22
2022-10-13T01:14:24.599Z,101184.25
2022-10-13T01:17:07.307Z,101184.38
2022-10-13T01:20:06.532Z,101183.50
2022-10-13T01:22:50.548Z,101179.13
2022-10-13T01:25:45.997Z,101172.03
2022-10-13T01:28:39.425Z,101175.66
2022-10-13T01:31:19.685Z,101170.44
2022-10-13T01:34:00.544Z,101177.56
2022-10-13T01:36:39.240Z,101170.31
2022-10-13T01:39:22.671Z,101167.00
2022-10-13T01:42:02.310Z,101159.97
2022-10-13T01:44:40.542Z,101156.50
2022-10-13T01:47:17.097Z,101159.16
2022-10-13T01:49:53.609Z,101152.09
2022-10-13T01:52:34.551Z,101153.06
2022-10-13T01:55:11.021Z,101154.84
2022-10-13T01:57:46.409Z,101143.34
2022-10-13T02:00:22.635Z,101141.63
2022-10-13T02:03:17.707Z,101139.78
2022-10-13T02:06:03.160Z,101134.59
2022-10-13T02:08:52.644Z,101134.66
2022-10-13T02:11:26.573Z,101129.41
2022-10-13T02:14:02.759Z,101120.34
2022-10-13T02:16:40.329Z,101129.53
2022-10-13T02:19:18.522Z,101126.97
2022-10-13T02:21:54.137Z,101131.53
2022-10-13T02:24:27.920Z,101136.88
2022-10-13T02:27:01.586Z,101137.81
2022-10-13T02:29:35.679Z,101127.19
2022-10-13T02:32:09.504Z,101124.59
2022-10-13T02:34:44.104Z,101116.44
2022-10-13T02:37:17.373Z,101123.53
2022-10-13T02:39:50.853Z,101130.03
2022-10-13T02:42:26.477Z,101131.00
2022-10-13T02:45:02.239Z,101130.19
2022-10-13T02:47:35.985Z,101133.78
2022-10-13T02:50:12.459Z,101131.19
2022-10-13T02:52:46.141Z,101121.50
2022-10-13T02:55:19.920Z,101130.38
2022-10-13T02:57:54.615Z,101131.31
2022-10-13T03:00:28.307Z,101126.91
2022-10-13T03:03:02.003Z,101124.25
2022-10-13T03:05:37.011Z,101121.63
2022-10-13T03:08:10.793Z,101116.34
2022-10-13T03:10:44.347Z,101119.91
2022-10-13T03:13:17.992Z,101120.78
2022-10-13T03:15:51.809Z,101119.09
2022-10-13T03:18:26.875Z,101127.97
2022-10-13T03:21:03.748Z,101120.06
2022-10-13T03:23:37.516Z,101112.16
2022-10-13T03:26:11.141Z,101109.53
2022-10-13T03:28:44.823Z,101124.63
2022-10-13T03:31:19.184Z,101116.72
2022-10-13T03:33:53.553Z,101123.84
2022-10-13T03:36:28.706Z,101115.94
2022-10-13T03:39:02.388Z,101117.75
2022-10-13T03:41:36.026Z,101123.06
2022-10-13T03:44:10.731Z,101116.88
2022-10-13T03:46:44.771Z,101122.19
2022-10-13T03:49:18.982Z,101118.69
2022-10-13T03:51:53.954Z,101124.00
2022-10-13T03:54:27.629Z,101119.59
2022-10-13T03:57:01.270Z,101121.34
2022-10-13T03:59:36.965Z,101114.34
2022-10-13T04:02:10.754Z,101115.22
2022-10-13T04:04:44.344Z,101118.78
2022-10-13T04:07:19.295Z,101117.06
2022-10-13T04:09:52.913Z,101118.84
2022-10-13T04:12:26.881Z,101115.31
2022-10-13T04:15:00.803Z,101116.22
2022-10-13T04:17:34.502Z,101121.53
2022-10-13T04:20:09.773Z,101126.00
2022-10-13T04:22:44.756Z,101121.59
2022-10-13T04:25:18.482Z,101121.69
2022-10-13T04:27:52.196Z,101120.75
2022-10-13T04:30:26.087Z,101110.16
2022-10-13T04:32:59.660Z,101112.84
2022-10-13T04:35:33.339Z,101111.13
2022-10-13T04:38:08.825Z,101125.28
2022-10-13T04:40:42.643Z,101121.75
2022-10-13T04:43:16.192Z,101122.66
2022-10-13T04:45:49.749Z,101122.69
2022-10-13T04:48:23.306Z,101128.91
2022-10-13T04:51:01.294Z,101128.06
2022-10-13T04:53:37.061Z,101130.72
2022-10-13T04:56:16.511Z,101134.28
2022-10-13T04:58:50.955Z,101136.09
2022-10-13T05:01:26.414Z,101137.00
2022-10-13T05:04:03.389Z,101128.16
2022-10-13T05:07:12.469Z,101129.94
2022-10-13T05:09:39.170Z,101129.03
2022-10-13T05:12:17.310Z,101136.09
2022-10-13T05:14:51.043Z,101138.72
2022-10-13T05:17:24.588Z,101135.16
2022-10-13T05:19:58.230Z,101138.66
2022-10-13T05:22:31.741Z,101129.81
2022-10-13T05:25:07.181Z,101136.84
2022-10-13T05:27:40.729Z,101129.75
2022-10-13T05:30:16.260Z,101132.34
2022-10-13T05:32:53.749Z,101134.03
2022-10-13T05:35:29.192Z,101135.75
2022-10-13T05:38:02.761Z,101133.94
2022-10-13T05:40:37.778Z,101136.53
2022-10-13T05:43:12.188Z,101140.94
2022-10-13T05:45:45.896Z,101137.34
2022-10-13T05:48:19.542Z,101144.34
2022-10-13T05:50:53.603Z,101134.53
2022-10-13T05:53:29.514Z,101137.94
2022-10-13T05:56:10.178Z,101137.84
2022-10-13T05:58:47.232Z,101144.81
2022-10-13T06:01:23.806Z,101133.13
2022-10-13T06:04:01.873Z,101129.38
2022-10-13T06:06:35.855Z,101136.28
2022-10-13T06:09:09.862Z,101136.97
2022-10-13T06:11:44.697Z,101130.34
2022-10-13T06:14:18.387Z,101135.66
2022-10-13T06:16:52.128Z,101133.69
2022-10-13T06:19:25.822Z,101137.03
2022-10-13T06:22:03.375Z,101141.19
2022-10-13T06:24:37.594Z,101144.44
2022-10-13T06:27:16.213Z,101151.19
2022-10-13T06:29:50.869Z,101141.09
2022-10-13T06:32:24.490Z,101146.13
2022-10-13T06:34:58.063Z,101141.41
2022-10-13T06:37:32.039Z,101137.44
2022-10-13T06:40:05.676Z,101141.09
2022-10-13T06:42:40.820Z,101136.44
2022-10-13T06:45:15.812Z,101127.91
2022-10-13T06:47:49.183Z,101120.00
2022-10-13T06:50:22.820Z,101119.78
2022-10-13T06:52:56.982Z,101115.72
2022-10-13T06:55:30.538Z,101114.13
2022-10-13T06:58:05.580Z,101120.38
2022-10-13T07:00:39.582Z,101112.47
2022-10-13T07:03:13.813Z,101111.59
2022-10-13T07:05:47.476Z,101104.47
2022-10-13T07:08:21.263Z,101105.16
2022-10-13T07:10:54.578Z,101102.66
2022-10-13T07:13:32.397Z,101107.16
2022-10-13T07:16:10.056Z,101105.72
2022-10-13T07:18:45.977Z,101106.19
2022-10-13T07:21:23.359Z,101097.38
2022-10-13T07:23:57.037Z,101091.44
2022-10-13T07:26:32.678Z,101089.06
2022-10-13T07:29:09.298Z,101097.72
2022-10-13T07:31:44.532Z,101093.66
2022-10-13T07:34:18.190Z,101096.88
2022-10-13T07:36:51.568Z,101085.44
2022-10-13T07:39:25.205Z,101083.34
2022-10-13T07:41:58.431Z,101077.50
2022-10-13T07:44:33.419Z,101075.69
2022-10-13T07:47:07.077Z,101066.69
2022-10-13T07:49:40.824Z,101066.13
2022-10-13T07:52:20.372Z,101059.03
2022-10-13T07:54:54.290Z,101056.44
2022-10-13T07:57:28.240Z,101059.09
2022-10-13T08:00:25.056Z,101050.53
2022-10-13T08:02:58.324Z,101053.28
2022-10-13T08:05:32.031Z,101048.19
2022-10-13T08:08:09.360Z,101046.47
2022-10-13T08:10:43.128Z,101036.72
2022-10-13T08:13:16.835Z,101033.41
2022-10-13T08:15:51.935Z,101035.13
2022-10-13T08:18:25.439Z,101029.47
2022-10-13T08:21:33.137Z,101025.44
2022-10-13T08:23:55.850Z,101027.00
2022-10-13T08:26:32.614Z,101030.63
2022-10-13T08:29:23.468Z,101027.72
2022-10-13T08:31:59.137Z,101026.81
2022-10-13T08:34:34.194Z,101027.50
2022-10-13T08:37:07.805Z,101024.38
2022-10-13T08:39:41.659Z,101019.31
2022-10-13T08:42:19.945Z,101015.97
2022-10-13T08:48:00.214Z,101012.94
2022-10-13T08:50:42.256Z,101015.19
2022-10-13T08:53:23.434Z,101016.53
2022-10-13T08:55:59.592Z,101018.22
2022-10-13T08:58:35.876Z,101018.22
2022-10-13T09:01:16.018Z,101011.38
2022-10-13T09:03:56.851Z,101016.78
2022-10-13T09:06:34.386Z,101015.47
2022-10-13T09:09:09.513Z,101015.28
2022-10-13T09:11:46.308Z,101018.56
2022-10-13T09:14:27.495Z,101017.03
2022-10-13T09:17:16.712Z,101015.16
2022-10-13T09:20:02.066Z,101013.66
2022-10-13T09:22:37.326Z,101007.88
2022-10-13T09:25:22.672Z,101009.53
2022-10-13T09:27:58.147Z,101000.91
2022-10-13T09:30:38.346Z,100999.47
2022-10-13T09:33:23.530Z,101006.88
2022-10-13T09:36:15.989Z,101001.22
2022-10-13T09:39:08.506Z,100997.72
2022-10-13T09:41:44.032Z,100994.16
2022-10-13T09:44:22.172Z,100988.28
2022-10-13T09:47:02.379Z,100994.03
2022-10-13T09:49:40.101Z,100982.72
2022-10-13T09:52:20.741Z,100974.56
2022-10-13T09:54:57.587Z,100970.50
2022-10-13T09:57:41.351Z,100963.28
2022-10-13T10:00:21.604Z,100963.22
2022-10-13T10:02:59.330Z,100958.47
2022-10-13T10:05:44.138Z,100945.50
2022-10-13T10:08:38.751Z,100952.53
2022-10-13T10:11:20.777Z,100937.25
2022-10-13T10:13:55.947Z,100940.25
2022-10-13T10:16:36.076Z,100930.22
2022-10-13T10:19:16.727Z,100928.28
2022-10-13T10:21:57.396Z,100921.38
2022-10-13T10:24:39.964Z,100924.13
2022-10-13T10:27:17.750Z,100917.69
2022-10-13T10:29:56.325Z,100913.69
2022-10-13T10:32:39.212Z,100927.44
2022-10-13T10:35:17.406Z,100912.28
2022-10-13T10:38:16.766Z,100924.19
2022-10-13T10:40:58.247Z,100919.81
2022-10-13T10:43:44.765Z,100912.91
2022-10-13T10:46:23.075Z,100909.94
2022-10-13T10:49:00.924Z,100898.63
2022-10-13T10:51:37.956Z,100898.41
2022-10-13T10:54:28.126Z,100889.66
2022-10-13T10:57:10.108Z,100887.50
2022-10-13T10:59:52.806Z,100880.06
2022-10-13T11:02:45.377Z,100893.00
2022-10-13T11:05:19.587Z,100875.88
2022-10-13T11:08:00.931Z,100883.66
2022-10-13T11:10:34.617Z,100889.81
2022-10-13T11:13:19.539Z,100888.75
2022-10-13T11:15:53.535Z,100870.59
2022-10-13T11:19:09.293Z,100857.00
2022-10-13T11:22:24.814Z,100852.91
2022-10-13T11:25:01.288Z,100849.09
2022-10-13T11:27:45.257Z,100850.53
2022-10-13T11:30:55.718Z,100846.22
2022-10-13T11:33:54.888Z,100836.09
2022-10-13T11:37:03.253Z,100844.34
2022-10-13T11:39:55.609Z,100839.50
2022-10-13T11:42:49.502Z,100838.84
2022-10-13T11:45:33.642Z,100825.41
2022-10-13T11:48:42.565Z,100825.84
2022-10-13T11:51:30.516Z,100823.94
2022-10-13T11:54:15.438Z,100819.78
2022-10-13T11:56:50.675Z,100817.50
2022-10-13T11:59:27.872Z,100822.81
2022-10-13T12:02:08.511Z,100827.47
2022-10-13T12:04:46.808Z,100820.00
2022-10-13T12:07:23.932Z,100825.78
2022-10-13T12:09:59.141Z,100816.47
2022-10-13T12:12:39.974Z,100818.66
2022-10-13T12:15:34.009Z,100804.97
2022-10-13T12:18:23.710Z,100794.50
2022-10-13T12:21:00.576Z,100800.31
2022-10-13T12:23:46.707Z,100807.31
2022-10-13T12:26:23.015Z,100798.59
2022-10-13T12:28:58.874Z,100786.03
2022-10-13T12:31:42.293Z,100786.69
2022-10-13T12:34:24.268Z,100776.13
2022-10-13T12:37:02.218Z,100776.56
2022-10-13T12:39:39.969Z,100780.47
2022-10-13T12:42:15.820Z,100764.59
2022-10-13T12:44:49.599Z,100781.06
2022-10-13T12:47:41.169Z,100765.97
2022-10-13T12:50:34.906Z,100761.94
2022-10-13T12:53:17.713Z,100763.81
2022-10-13T12:55:55.491Z,100762.06
2022-10-13T12:58:32.478Z,100760.50
2022-10-13T13:01:10.686Z,100754.13
2022-10-13T13:03:45.266Z,100747.72
2022-10-13T13:06:32.095Z,100756.22
2022-10-13T13:09:32.139Z,100736.81
2022-10-13T13:12:22.885Z,100742.94
2022-10-13T13:15:03.347Z,100741.13
2022-10-13T13:17:58.742Z,100739.38
2022-10-13T13:20:37.196Z,100734.91
2022-10-13T13:23:10.765Z,100735.47
2022-10-13T13:25:45.841Z,100728.78
2022-10-13T13:28:19.480Z,100733.28
2022-10-13T13:30:56.578Z,100730.44
2022-10-13T13:33:30.228Z,100732.97
2022-10-13T13:36:06.781Z,100720.75
2022-10-13T13:38:40.472Z,100726.31
2022-10-13T13:41:16.580Z,100730.56
2022-10-13T13:43:51.277Z,100728.31
2022-10-13T13:46:27.795Z,100721.44
2022-10-13T13:49:02.303Z,100711.13
2022-10-13T13:51:35.982Z,100722.88
2022-10-13T13:54:09.694Z,100720.34
2022-10-13T13:56:44.730Z,100720.06
2022-10-13T13:59:18.297Z,100717.16
2022-10-13T14:01:51.976Z,100728.06
2022-10-13T14:04:31.451Z,100734.28
2022-10-13T14:07:05.068Z,100730.75
2022-10-13T14:09:38.772Z,100717.69
2022-10-13T14:12:16.187Z,100721.53
2022-10-13T14:14:50.602Z,100715.53
2022-10-13T14:17:29.390Z,100714.72
2022-10-13T14:20:05.160Z,100709.22
2022-10-13T14:22:48.220Z,100717.69
2022-10-13T14:25:23.248Z,100715.25
2022-10-13T14:27:58.326Z,100717.59
2022-10-13T14:30:32.026Z,100711.66
2022-10-13T14:33:05.968Z,100713.63
2022-10-13T14:35:39.607Z,100703.06
2022-10-13T14:38:14.888Z,100699.56
2022-10-13T14:40:49.225Z,100695.13
2022-10-13T14:43:23.916Z,100692.63
2022-10-13T14:46:02.043Z,100692.31
2022-10-13T14:48:37.640Z,100686.66
2022-10-13T14:51:21.129Z,100686.53
2022-10-13T14:53:54.881Z,100680.66
2022-10-13T14:56:30.777Z,100692.00
2022-10-13T14:59:10.713Z,100678.25
2022-10-13T15:01:48.666Z,100668.91
2022-10-13T15:04:22.449Z,100676.66
2022-10-13T15:06:56.122Z,100676.97
2022-10-13T15:09:44.967Z,100671.97
2022-10-13T15:12:24.845Z,100674.22
2022-10-13T15:15:00.004Z,100678.25
2022-10-13T15:17:34.542Z,100683.94
2022-10-13T15:20:09.710Z,100676.28
2022-10-13T15:22:43.448Z,100678.50
2022-10-13T15:25:19.528Z,100681.59
2022-10-13T15:27:53.092Z,100685.75
2022-10-13T15:30:27.841Z,100680.25
2022-10-13T15:33:01.919Z,100680.47
2022-10-13T15:35:38.200Z,100681.91
2022-10-13T15:38:19.791Z,100690.66
2022-10-13T15:40:53.336Z,100686.66
2022-10-13T15:43:27.081Z,100683.59
2022-10-13T15:46:04.254Z,100692.03
2022-10-13T15:48:37.916Z,100690.69
2022-10-13T15:51:14.992Z,100686.94
2022-10-13T15:53:49.257Z,100682.78
2022-10-13T15:56:22.950Z,100686.03
2022-10-13T15:58:56.148Z,100683.16
2022-10-13T16:01:42.279Z,100676.25
2022-10-13T16:04:15.956Z,100677.75
2022-10-13T16:06:49.320Z,100674.91
2022-10-13T16:09:22.907Z,100677.72
2022-10-13T16:11:56.608Z,100675.56
2022-10-13T16:14:29.991Z,100669.13
2022-10-13T16:17:06.544Z,100674.59
2022-10-13T16:19:40.221Z,100678.56
2022-10-13T16:22:14.398Z,100675.38
2022-10-13T16:24:47.924Z,100669.47
2022-10-13T16:27:22.378Z,100675.97
2022-10-13T16:29:56.065Z,100683.44
2022-10-13T16:32:31.503Z,100681.16
2022-10-13T16:35:07.009Z,100677.97
2022-10-13T16:37:40.759Z,100680.13
2022-10-13T16:40:14.332Z,100676.91
2022-10-13T16:42:48.168Z,100678.09
2022-10-13T16:45:41.143Z,100677.50
2022-10-13T16:48:17.255Z,100679.72
2022-10-13T16:50:50.984Z,100670.16
2022-10-13T16:53:27.634Z,100673.09
2022-10-13T16:56:01.293Z,100677.09
2022-10-13T16:58:37.460Z,100668.50
2022-10-13T17:01:12.607Z,100664.31
2022-10-13T17:03:50.256Z,100659.19
2022-10-13T17:06:25.893Z,100664.78
2022-10-13T17:09:04.041Z,100660.53
2022-10-13T17:11:38.534Z,100656.31
2022-10-13T17:14:12.822Z,100655.69
2022-10-13T17:16:46.225Z,100650.97
2022-10-13T17:19:21.288Z,100651.84
2022-10-13T17:21:54.885Z,100650.25
2022-10-13T17:24:32.214Z,100659.81
2022-10-13T17:27:05.965Z,100658.84
2022-10-13T17:29:40.866Z,100662.72
2022-10-13T17:32:14.829Z,100654.09
2022-10-13T17:34:49.889Z,100660.59
2022-10-13T17:37:26.641Z,100653.56
2022-10-13T17:40:00.318Z,100652.84
2022-10-13T17:42:34.399Z,100645.88
2022-10-13T17:45:09.100Z,100646.94
2022-10-13T17:47:51.750Z,100641.72
2022-10-13T17:50:35.904Z,100650.00
2022-10-13T17:53:11.350Z,100649.34
2022-10-13T17:58:32.970Z,100643.66
2022-10-13T18:01:13.273Z,100646.91
2022-10-13T18:03:50.247Z,100644.03
2022-10-13T18:06:26.627Z,100644.25
2022-10-13T18:09:02.407Z,100639.97
2022-10-13T18:11:36.305Z,100645.41
2022-10-13T18:14:10.132Z,100637.56
2022-10-13T18:16:47.120Z,100641.44
2022-10-13T18:19:22.623Z,100639.97
2022-10-13T18:21:57.684Z,100638.47
2022-10-13T18:24:33.863Z,100635.09
2022-10-13T18:27:07.333Z,100636.09
2022-10-13T18:29:43.150Z,100629.06
2022-10-13T18:32:16.706Z,100640.66
2022-10-13T18:34:50.476Z,100643.41
2022-10-13T18:37:25.114Z,100648.41
2022-10-13T18:39:58.688Z,100646.25
2022-10-13T18:42:32.266Z,100648.34
2022-10-13T18:45:08.203Z,100637.78
2022-10-13T18:47:42.616Z,100642.31
2022-10-13T18:50:15.925Z,100641.03
2022-10-13T18:52:50.911Z,100644.34
2022-10-13T18:55:24.555Z,100641.81
2022-10-13T18:57:58.095Z,100644.63
2022-10-13T19:00:40.137Z,100640.31
2022-10-13T19:03:14.094Z,100642.22
2022-10-13T19:05:48.464Z,100637.13
2022-10-13T19:08:24.776Z,100640.84
2022-10-13T19:10:58.328Z,100641.91
2022-10-13T19:13:31.961Z,100633.22
2022-10-13T19:16:06.011Z,100644.97
2022-10-13T19:18:39.822Z,100640.81
2022-10-13T19:21:13.298Z,100634.31
2022-10-13T19:23:51.562Z,100634.94
2022-10-13T19:26:35.286Z,100643.22
2022-10-13T19:29:11.096Z,100641.53
2022-10-13T19:31:51.758Z,100636.34
2022-10-13T19:34:27.643Z,100644.50
2022-10-13T19:37:02.052Z,100637.47
2022-10-13T19:39:37.169Z,100637.59
2022-10-13T19:42:13.216Z,100636.94
2022-10-13T19:44:46.702Z,100642.47
2022-10-13T19:47:25.547Z,100637.25
2022-10-13T19:50:02.441Z,100636.53
2022-10-13T19:52:42.821Z,100642.47
2022-10-13T19:55:31.114Z,100634.91
2022-10-13T19:58:04.685Z,100631.56
2022-10-13T20:00:38.606Z,100627.34
2022-10-13T20:03:15.922Z,100631.03
2022-10-13T20:05:52.307Z,100625.88
2022-10-13T20:08:46.147Z,100628.47
2022-10-13T20:11:24.495Z,100620.72
2022-10-13T20:14:00.171Z,100613.69
2022-10-13T20:16:33.763Z,100616.47
2022-10-13T20:19:51.624Z,100617.50
2022-10-13T20:22:25.538Z,100614.94
2022-10-13T20:24:59.102Z,100606.16
2022-10-13T20:27:39.382Z,100611.53
2022-10-13T20:30:15.909Z,100611.72
2022-10-13T20:33:00.127Z,100613.56
2022-10-13T20:35:35.646Z,100608.38
2022-10-13T20:38:13.937Z,100615.56
2022-10-13T20:40:50.352Z,100610.22
2022-10-13T20:43:31.237Z,100606.75
2022-10-13T20:46:10.022Z,100607.78
2022-10-13T20:51:42.030Z,100609.66
2022-10-13T20:54:16.488Z,100604.44
2022-10-13T20:56:53.075Z,100606.31
2022-10-13T20:59:35.819Z,100601.88
2022-10-13T21:02:11.992Z,100605.75
2022-10-13T21:04:45.574Z,100598.78
2022-10-13T21:07:19.465Z,100594.41
2022-10-13T21:09:55.470Z,100595.53
2022-10-13T21:12:32.973Z,100596.63
2022-10-13T21:15:12.697Z,100599.53
2022-10-13T21:17:49.645Z,100599.75
2022-10-13T21:20:23.217Z,100597.19
2022-10-13T21:22:56.681Z,100596.31
2022-10-13T21:25:30.932Z,100593.75
2022-10-13T21:28:08.732Z,100599.25
2022-10-13T21:30:43.645Z,100591.41
2022-10-13T21:33:21.699Z,100594.13
2022-10-13T21:35:55.959Z,100593.31
2022-10-13T21:38:30.477Z,100589.88
2022-10-13T21:41:05.746Z,100589.19
2022-10-13T21:43:39.230Z,100593.72
2022-10-13T21:46:15.903Z,100592.94
2022-10-13T21:48:54.488Z,100588.63
2022-10-13T21:51:47.197Z,100576.22
2022-10-13T21:54:20.642Z,100587.94
2022-10-13T21:56:54.152Z,100583.56
2022-10-13T21:59:27.898Z,100585.31
2022-10-13T22:02:02.887Z,100580.06
2022-10-13T22:04:36.854Z,100575.53
2022-10-13T22:07:09.987Z,100577.72
2022-10-13T22:09:43.610Z,100570.94
2022-10-13T22:12:17.241Z,100571.72
2022-10-13T22:14:55.761Z,100574.16
2022-10-13T22:17:31.557Z,100574.00
2022-10-13T22:20:06.932Z,100564.97
2022-10-13T22:22:40.464Z,100564.84
2022-10-13T22:25:14.221Z,100571.91
2022-10-13T22:27:47.852Z,100562.06
2022-10-13T22:30:21.377Z,100557.53
2022-10-13T22:32:56.340Z,100566.41
2022-10-13T22:35:30.088Z,100556.69
2022-10-13T22:38:03.708Z,100560.25
2022-10-13T22:40:37.327Z,100556.84
2022-10-13T22:43:13.387Z,100552.59
2022-10-13T22:45:52.091Z,100556.41
2022-10-13T22:48:27.047Z,100552.94
2022-10-13T22:51:04.625Z,100553.19
2022-10-13T22:53:40.021Z,100547.09
2022-10-13T22:56:15.517Z,100543.75
2022-10-13T22:58:57.152Z,100545.66
2022-10-13T23:01:31.346Z,100544.88
2022-10-13T23:04:10.003Z,100545.09
2022-10-13T23:06:43.773Z,100537.25
2022-10-13T23:09:17.429Z,100544.47
2022-10-13T23:11:57.548Z,100545.47
2022-10-13T23:14:34.353Z,100541.13
2022-10-13T23:17:07.882Z,100543.03
2022-10-13T23:19:42.895Z,100537.75
2022-10-13T23:22:19.820Z,100537.88
2022-10-13T23:24:53.620Z,100540.66
2022-10-13T23:27:27.112Z,100539.03
2022-10-13T23:30:02.158Z,100539.19
2022-10-13T23:32:35.685Z,100538.41
2022-10-13T23:35:11.006Z,100535.84
2022-10-13T23:37:53.695Z,100533.34
2022-10-13T23:40:27.293Z,100532.50
2022-10-13T23:43:00.731Z,100537.88
2022-10-13T23:45:34.342Z,100535.25
2022-10-13T23:48:11.347Z,100532.66
2022-10-13T23:50:48.858Z,100538.97
2022-10-13T23:53:25.169Z,100524.78
2022-10-13T23:55:58.774Z,100527.44
2022-10-13T23:58:40.305Z,100520.38
